sensor_id;sensor_type;location;lat;lon;timestamp;pressure;altitude;pressure_sealevel;temperature;humidity
27146;BME280;17980;51.744;7.190;2022-07-23T00:02:01;101388.05;;;20.20;100.00
27146;BME280;17980;51.744;7.190;2022-07-23T00:04:29;101385.60;;;19.88;100.00
27146;BME280;17980;51.744;7.190;2022-07-23T00:09:35;101374.16;;;20.13;100.00
27146;BME280;17980;51.744;7.190;2022-07-23T00:12:04;101381.33;;;19.97;100.00
27146;BME280;17980;51.744;7.190;2022-07-23T00:14:31;101365.45;;;20.16;100.00
27146;BME280;17980;51.744;7.190;2022-07-23T00:16:58;101366.16;;;20.14;100.00
27146;BME280;17980;51.744;7.190;2022-07-23T00:19:26;101363.66;;;20.19;100.00
27146;BME280;17980;51.744;7.190;2022-07-23T00:24:33;101363.22;;;20.55;100.00
27146;BME280;17980;51.744;7.190;2022-07-23T00:27:00;101360.17;;;20.50;100.00
27146;BME280;17980;51.744;7.190;2022-07-23T00:29:27;101364.13;;;20.51;100.00
27146;BME280;17980;51.744;7.190;2022-07-23T00:31:55;101363.73;;;20.26;100.00
27146;BME280;17980;51.744;7.190;2022-07-23T00:37:02;101355.55;;;20.18;100.00
27146;BME280;17980;51.744;7.190;2022-07-23T00:39:29;101354.02;;;20.15;100.00
27146;BME280;17980;51.744;7.190;2022-07-23T00:41:56;101355.34;;;20.30;100.00
27146;BME280;17980;51.744;7.190;2022-07-23T00:44:25;101356.73;;;20.30;100.00
27146;BME280;17980;51.744;7.190;2022-07-23T00:46:54;101355.59;;;20.03;100.00
27146;BME280;17980;51.744;7.190;2022-07-23T00:49:23;101361.36;;;19.90;100.00
27146;BME280;17980;51.744;7.190;2022-07-23T00:54:38;101345.50;;;20.06;100.00
27146;BME280;17980;51.744;7.190;2022-07-23T00:57:05;101355.25;;;19.80;100.00
27146;BME280;17980;51.744;7.190;2022-07-23T00:59:33;101357.27;;;19.86;100.00
27146;BME280;17980;51.744;7.190;2022-07-23T01:02:00;101341.44;;;20.02;100.00
27146;BME280;17980;51.744;7.190;2022-07-23T01:04:28;101346.69;;;19.86;100.00
27146;BME280;17980;51.744;7.190;2022-07-23T01:06:55;101355.08;;;19.92;100.00
27146;BME280;17980;51.744;7.190;2022-07-23T01:09:22;101356.40;;;19.97;100.00
27146;BME280;17980;51.744;7.190;2022-07-23T01:14:33;101349.26;;;20.20;99.07
27146;BME280;17980;51.744;7.190;2022-07-23T01:17:00;101355.67;;;19.88;100.00
27146;BME280;17980;51.744;7.190;2022-07-23T01:19:28;101347.16;;;20.11;100.00
27146;BME280;17980;51.744;7.190;2022-07-23T01:21:57;101343.80;;;19.94;99.66
27146;BME280;17980;51.744;7.190;2022-07-23T01:24:25;101343.55;;;20.10;99.03
27146;BME280;17980;51.744;7.190;2022-07-23T01:29:32;101345.55;;;20.34;100.00
27146;BME280;17980;51.744;7.190;2022-07-23T01:31:59;101344.70;;;20.23;99.40
27146;BME280;17980;51.744;7.190;2022-07-23T01:34:27;101348.08;;;20.29;98.32
27146;BME280;17980;51.744;7.190;2022-07-23T01:36:54;101351.14;;;20.52;98.53
27146;BME280;17980;51.744;7.190;2022-07-23T01:39:21;101348.05;;;20.40;98.89
27146;BME280;17980;51.744;7.190;2022-07-23T01:41:49;101359.57;;;20.26;99.68
27146;BME280;17980;51.744;7.190;2022-07-23T01:47:02;101346.24;;;20.54;97.65
27146;BME280;17980;51.744;7.190;2022-07-23T01:49:29;101353.58;;;20.51;97.98
27146;BME280;17980;51.744;7.190;2022-07-23T01:54:34;101349.55;;;20.64;97.66
27146;BME280;17980;51.744;7.190;2022-07-23T01:57:02;101356.41;;;20.68;96.92
27146;BME280;17980;51.744;7.190;2022-07-23T01:59:29;101347.77;;;20.45;97.59
27146;BME280;17980;51.744;7.190;2022-07-23T02:01:57;101341.17;;;20.07;98.57
27146;BME280;17980;51.744;7.190;2022-07-23T02:04:25;101336.14;;;20.07;100.00
27146;BME280;17980;51.744;7.190;2022-07-23T02:06:52;101340.84;;;20.45;98.94
27146;BME280;17980;51.744;7.190;2022-07-23T02:11:57;101347.20;;;20.39;97.75
27146;BME280;17980;51.744;7.190;2022-07-23T02:14:24;101349.54;;;19.92;100.00
27146;BME280;17980;51.744;7.190;2022-07-23T02:16:52;101346.63;;;19.90;100.00
27146;BME280;17980;51.744;7.190;2022-07-23T02:19:19;101341.61;;;20.00;100.00
27146;BME280;17980;51.744;7.190;2022-07-23T02:21:46;101340.64;;;20.08;100.00
27146;BME280;17980;51.744;7.190;2022-07-23T02:26:59;101333.48;;;20.31;98.44
27146;BME280;17980;51.744;7.190;2022-07-23T02:29:26;101339.56;;;20.20;98.70
27146;BME280;17980;51.744;7.190;2022-07-23T02:34:33;101331.98;;;20.07;99.71
27146;BME280;17980;51.744;7.190;2022-07-23T02:37:01;101330.87;;;20.01;100.00
27146;BME280;17980;51.744;7.190;2022-07-23T02:39:29;101335.54;;;20.22;99.20
27146;BME280;17980;51.744;7.190;2022-07-23T02:41:56;101331.66;;;20.06;100.00
27146;BME280;17980;51.744;7.190;2022-07-23T02:44:24;101332.86;;;20.07;99.59
27146;BME280;17980;51.744;7.190;2022-07-23T02:46:51;101334.29;;;20.25;98.25
27146;BME280;17980;51.744;7.190;2022-07-23T02:49:18;117927.00;;;19.75;100.00
27146;BME280;17980;51.744;7.190;2022-07-23T02:51:46;75938.63;;;-148.23;100.00
27146;BME280;17980;51.744;7.190;2022-07-23T02:54:13;101341.27;;;19.52;100.00
27146;BME280;17980;51.744;7.190;2022-07-23T02:56:40;101338.39;;;19.60;100.00
27146;BME280;17980;51.744;7.190;2022-07-23T02:59:08;101330.45;;;19.46;100.00
27146;BME280;17980;51.744;7.190;2022-07-23T03:01:35;101340.82;;;19.59;100.00
27146;BME280;17980;51.744;7.190;2022-07-23T03:04:03;101342.94;;;19.57;100.00
27146;BME280;17980;51.744;7.190;2022-07-23T03:06:30;101343.64;;;19.44;100.00
27146;BME280;17980;51.744;7.190;2022-07-23T03:08:58;101337.82;;;19.39;100.00
27146;BME280;17980;51.744;7.190;2022-07-23T03:14:05;101330.71;;;19.66;100.00
27146;BME280;17980;51.744;7.190;2022-07-23T03:16:40;101330.37;;;19.65;100.00
27146;BME280;17980;51.744;7.190;2022-07-23T03:19:08;101334.49;;;19.54;100.00
27146;BME280;17980;51.744;7.190;2022-07-23T03:24:15;101331.73;;;19.54;100.00
27146;BME280;17980;51.744;7.190;2022-07-23T03:26:44;101331.09;;;19.26;100.00
27146;BME280;17980;51.744;7.190;2022-07-23T03:29:11;101326.01;;;19.30;100.00
27146;BME280;17980;51.744;7.190;2022-07-23T03:31:39;101326.16;;;19.33;100.00
27146;BME280;17980;51.744;7.190;2022-07-23T03:34:06;101325.02;;;19.27;100.00
27146;BME280;17980;51.744;7.190;2022-07-23T03:36:33;101328.08;;;19.02;100.00
27146;BME280;17980;51.744;7.190;2022-07-23T03:39:01;101329.66;;;19.01;100.00
27146;BME280;17980;51.744;7.190;2022-07-23T03:41:28;101328.05;;;18.91;100.00
27146;BME280;17980;51.744;7.190;2022-07-23T03:43:55;101332.01;;;18.93;100.00
27146;BME280;17980;51.744;7.190;2022-07-23T03:46:22;101333.03;;;18.43;100.00
27146;BME280;17980;51.744;7.190;2022-07-23T03:48:50;101334.27;;;18.74;100.00
27146;BME280;17980;51.744;7.190;2022-07-23T03:51:19;101331.92;;;18.82;100.00
27146;BME280;17980;51.744;7.190;2022-07-23T03:53:46;101334.61;;;18.75;100.00
27146;BME280;17980;51.744;7.190;2022-07-23T03:56:15;101333.76;;;19.46;100.00
27146;BME280;17980;51.744;7.190;2022-07-23T03:58:43;101337.48;;;19.64;99.61
27146;BME280;17980;51.744;7.190;2022-07-23T04:01:11;101334.36;;;19.88;97.73
27146;BME280;17980;51.744;7.190;2022-07-23T04:03:38;101334.25;;;20.07;96.50
27146;BME280;17980;51.744;7.190;2022-07-23T04:06:06;101336.29;;;19.88;95.23
27146;BME280;17980;51.744;7.190;2022-07-23T04:08:36;101329.69;;;20.10;94.26
27146;BME280;17980;51.744;7.190;2022-07-23T04:11:03;101337.63;;;19.40;96.76
27146;BME280;17980;51.744;7.190;2022-07-23T04:16:11;101345.06;;;19.81;96.74
27146;BME280;17980;51.744;7.190;2022-07-23T04:18:39;101341.25;;;19.67;96.85
27146;BME280;17980;51.744;7.190;2022-07-23T04:21:06;101345.08;;;19.76;96.59
27146;BME280;17980;51.744;7.190;2022-07-23T04:26:25;101355.87;;;19.86;95.88
27146;BME280;17980;51.744;7.190;2022-07-23T04:28:52;101355.03;;;20.07;94.12
27146;BME280;17980;51.744;7.190;2022-07-23T04:34:00;101350.07;;;20.13;93.91
27146;BME280;17980;51.744;7.190;2022-07-23T04:36:27;101351.99;;;20.13;93.13
27146;BME280;17980;51.744;7.190;2022-07-23T04:38:54;101348.69;;;20.13;92.80
27146;BME280;17980;51.744;7.190;2022-07-23T04:44:02;101343.14;;;20.24;92.84
27146;BME280;17980;51.744;7.190;2022-07-23T04:46:30;101348.25;;;20.38;91.70
27146;BME280;17980;51.744;7.190;2022-07-23T04:48:58;101356.47;;;20.36;91.60
27146;BME280;17980;51.744;7.190;2022-07-23T04:51:26;101360.23;;;20.56;91.34
27146;BME280;17980;51.744;7.190;2022-07-23T04:53:53;101349.62;;;20.60;91.31
27146;BME280;17980;51.744;7.190;2022-07-23T04:56:23;101355.81;;;20.51;91.20
27146;BME280;17980;51.744;7.190;2022-07-23T04:58:53;101359.76;;;20.63;90.43
27146;BME280;17980;51.744;7.190;2022-07-23T05:01:20;101356.25;;;20.76;89.89
27146;BME280;17980;51.744;7.190;2022-07-23T05:06:27;101357.44;;;20.78;90.67
27146;BME280;17980;51.744;7.190;2022-07-23T05:08:54;101369.98;;;20.74;90.98
27146;BME280;17980;51.744;7.190;2022-07-23T05:11:22;101370.45;;;20.77;90.82
27146;BME280;17980;51.744;7.190;2022-07-23T05:13:49;101374.00;;;20.82;91.15
27146;BME280;17980;51.744;7.190;2022-07-23T05:16:18;101373.44;;;20.76;91.01
27146;BME280;17980;51.744;7.190;2022-07-23T05:18:45;101372.05;;;20.76;91.85
27146;BME280;17980;51.744;7.190;2022-07-23T05:21:12;101370.66;;;20.93;90.72
27146;BME280;17980;51.744;7.190;2022-07-23T05:23:40;101382.34;;;21.17;89.82
27146;BME280;17980;51.744;7.190;2022-07-23T05:28:46;101377.98;;;21.43;86.92
27146;BME280;17980;51.744;7.190;2022-07-23T05:31:13;101382.60;;;21.46;86.91
27146;BME280;17980;51.744;7.190;2022-07-23T05:33:40;101378.02;;;21.49;86.92
27146;BME280;17980;51.744;7.190;2022-07-23T05:38:48;101382.67;;;21.60;85.93
27146;BME280;17980;51.744;7.190;2022-07-23T05:41:16;101390.46;;;21.54;87.05
27146;BME280;17980;51.744;7.190;2022-07-23T05:43:44;101376.51;;;21.47;86.88
27146;BME280;17980;51.744;7.190;2022-07-23T05:48:57;101381.23;;;21.71;86.50
27146;BME280;17980;51.744;7.190;2022-07-23T05:51:25;101382.26;;;21.63;86.06
27146;BME280;17980;51.744;7.190;2022-07-23T05:56:36;101393.80;;;21.42;87.50
27146;BME280;17980;51.744;7.190;2022-07-23T05:59:04;101393.78;;;21.60;86.53
27146;BME280;17980;51.744;7.190;2022-07-23T06:01:31;101396.00;;;21.78;85.68
27146;BME280;17980;51.744;7.190;2022-07-23T06:06:37;101403.19;;;21.06;86.81
27146;BME280;17980;51.744;7.190;2022-07-23T06:09:04;101405.69;;;21.71;84.52
27146;BME280;17980;51.744;7.190;2022-07-23T06:11:40;101404.20;;;22.06;83.06
27146;BME280;17980;51.744;7.190;2022-07-23T06:14:08;101407.97;;;21.37;84.38
27146;BME280;17980;51.744;7.190;2022-07-23T06:19:16;101410.62;;;21.34;85.99
27146;BME280;17980;51.744;7.190;2022-07-23T06:21:46;101413.97;;;21.89;84.13
27146;BME280;17980;51.744;7.190;2022-07-23T06:24:14;101420.91;;;21.82;85.06
27146;BME280;17980;51.744;7.190;2022-07-23T06:26:41;101415.52;;;22.11;84.17
27146;BME280;17980;51.744;7.190;2022-07-23T06:29:09;101416.83;;;22.09;83.29
27146;BME280;17980;51.744;7.190;2022-07-23T06:31:39;101416.28;;;22.09;83.32
27146;BME280;17980;51.744;7.190;2022-07-23T06:34:07;101414.48;;;21.81;81.12
27146;BME280;17980;51.744;7.190;2022-07-23T06:36:35;101424.47;;;22.00;81.77
27146;BME280;17980;51.744;7.190;2022-07-23T06:39:02;101427.22;;;21.87;82.40
27146;BME280;17980;51.744;7.190;2022-07-23T06:41:31;101431.17;;;22.32;79.87
27146;BME280;17980;51.744;7.190;2022-07-23T06:46:48;101435.89;;;22.32;83.59
27146;BME280;17980;51.744;7.190;2022-07-23T06:49:16;101429.20;;;22.50;82.60
27146;BME280;17980;51.744;7.190;2022-07-23T06:51:44;101435.41;;;22.08;85.20
27146;BME280;17980;51.744;7.190;2022-07-23T06:54:12;101430.16;;;22.53;84.06
27146;BME280;17980;51.744;7.190;2022-07-23T06:56:43;101431.48;;;22.27;84.13
27146;BME280;17980;51.744;7.190;2022-07-23T06:59:11;101430.23;;;24.75;77.61
27146;BME280;17980;51.744;7.190;2022-07-23T07:04:20;101425.66;;;28.53;58.52
27146;BME280;17980;51.744;7.190;2022-07-23T07:06:51;101428.10;;;29.76;55.99
27146;BME280;17980;51.744;7.190;2022-07-23T07:09:19;101430.10;;;30.02;55.81
27146;BME280;17980;51.744;7.190;2022-07-23T07:14:26;101434.48;;;33.37;47.85
27146;BME280;17980;51.744;7.190;2022-07-23T07:16:53;101433.48;;;31.82;48.25
27146;BME280;17980;51.744;7.190;2022-07-23T07:19:21;101437.94;;;32.83;46.78
27146;BME280;17980;51.744;7.190;2022-07-23T07:21:48;101438.14;;;31.53;49.46
27146;BME280;17980;51.744;7.190;2022-07-23T07:26:59;101439.47;;;33.61;45.76
27146;BME280;17980;51.744;7.190;2022-07-23T07:29:27;101441.83;;;34.06;45.04
27146;BME280;17980;51.744;7.190;2022-07-23T07:34:36;101452.34;;;34.01;44.34
27146;BME280;17980;51.744;7.190;2022-07-23T07:37:05;74336.58;;;33.25;100.00
27146;BME280;17980;51.744;7.190;2022-07-23T07:39:32;101448.28;;;34.20;44.08
27146;BME280;17980;51.744;7.190;2022-07-23T07:42:00;101444.38;;;29.74;51.36
27146;BME280;17980;51.744;7.190;2022-07-23T07:44:29;101444.38;;;29.74;51.36
27146;BME280;17980;51.744;7.190;2022-07-23T07:46:56;101460.25;;;29.41;51.88
27146;BME280;17980;51.744;7.190;2022-07-23T07:52:10;101467.02;;;33.29;45.25
27146;BME280;17980;51.744;7.190;2022-07-23T07:57:18;101465.34;;;31.24;48.67
27146;BME280;17980;51.744;7.190;2022-07-23T07:59:45;101467.89;;;32.68;46.39
27146;BME280;17980;51.744;7.190;2022-07-23T08:02:12;101465.84;;;32.40;46.56
27146;BME280;17980;51.744;7.190;2022-07-23T08:07:27;101474.34;;;31.24;48.30
27146;BME280;17980;51.744;7.190;2022-07-23T08:09:54;101473.92;;;32.03;46.48
27146;BME280;17980;51.744;7.190;2022-07-23T08:15:01;101478.28;;;30.88;47.73
27146;BME280;17980;51.744;7.190;2022-07-23T08:17:28;101476.89;;;35.32;43.07
27146;BME280;17980;51.744;7.190;2022-07-23T08:19:56;101479.09;;;34.34;43.56
27146;BME280;17980;51.744;7.190;2022-07-23T08:25:08;101486.58;;;31.42;46.93
27146;BME280;17980;51.744;7.190;2022-07-23T08:27:36;101490.14;;;29.86;49.76
27146;BME280;17980;51.744;7.190;2022-07-23T08:30:05;101492.09;;;28.47;52.94
27146;BME280;17980;51.744;7.190;2022-07-23T08:32:32;101488.33;;;27.48;56.34
27146;BME280;17980;51.744;7.190;2022-07-23T08:37:39;101490.83;;;27.59;56.38
27146;BME280;17980;51.744;7.190;2022-07-23T08:40:09;101493.42;;;31.12;49.14
27146;BME280;17980;51.744;7.190;2022-07-23T08:42:36;101495.05;;;32.85;45.77
27146;BME280;17980;51.744;7.190;2022-07-23T08:45:08;101489.77;;;35.48;42.12
27146;BME280;17980;51.744;7.190;2022-07-23T08:47:36;101502.73;;;32.05;45.45
27146;BME280;17980;51.744;7.190;2022-07-23T08:50:06;101503.34;;;30.87;47.32
27146;BME280;17980;51.744;7.190;2022-07-23T08:52:34;101502.41;;;27.77;53.92
27146;BME280;17980;51.744;7.190;2022-07-23T08:55:04;101505.90;;;29.67;50.98
27146;BME280;17980;51.744;7.190;2022-07-23T08:57:31;101502.39;;;30.46;49.41
27146;BME280;17980;51.744;7.190;2022-07-23T08:59:59;101510.47;;;32.36;46.54
27146;BME280;17980;51.744;7.190;2022-07-23T09:02:26;101506.55;;;34.34;43.55
27146;BME280;17980;51.744;7.190;2022-07-23T09:04:54;101508.20;;;32.38;45.63
27146;BME280;17980;51.744;7.190;2022-07-23T09:07:22;101503.52;;;33.23;44.43
27146;BME280;17980;51.744;7.190;2022-07-23T09:10:05;101498.71;;;35.02;42.21
27146;BME280;17980;51.744;7.190;2022-07-23T09:12:33;101505.25;;;36.07;40.53
27146;BME280;17980;51.744;7.190;2022-07-23T09:15:06;101510.18;;;35.99;39.96
27146;BME280;17980;51.744;7.190;2022-07-23T09:17:41;101510.44;;;33.85;40.55
27146;BME280;17980;51.744;7.190;2022-07-23T09:22:46;101502.69;;;35.01;40.03
27146;BME280;17980;51.744;7.190;2022-07-23T09:25:15;101498.38;;;36.51;38.79
27146;BME280;17980;51.744;7.190;2022-07-23T09:27:52;101502.46;;;37.77;37.63
27146;BME280;17980;51.744;7.190;2022-07-23T09:30:21;101497.59;;;38.67;35.98
27146;BME280;17980;51.744;7.190;2022-07-23T09:33:05;101506.93;;;36.87;36.90
